createdAt,value
2022-09-24T00:01:40.635Z,6.78
2022-09-24T00:04:12.357Z,7.68
2022-09-24T00:06:43.429Z,7.47
2022-09-24T00:09:11.756Z,6.55
2022-09-24T00:11:39.769Z,6.30
2022-09-24T00:14:08.386Z,7.43
2022-09-24T00:16:35.627Z,7.35
2022-09-24T00:19:04.078Z,6.95
2022-09-24T00:21:33.496Z,6.95
2022-09-24T00:24:06.445Z,7.63
2022-09-24T00:26:51.469Z,7.90
2022-09-24T00:29:24.303Z,6.78
2022-09-24T00:31:52.942Z,8.20
2022-09-24T00:34:21.145Z,6.32
2022-09-24T00:36:48.647Z,6.32
2022-09-24T00:39:15.824Z,5.43
2022-09-24T00:41:49.285Z,6.88
2022-09-24T00:44:45.133Z,6.50
2022-09-24T00:47:17.322Z,6.53
2022-09-24T00:49:47.991Z,6.40
2022-09-24T00:52:17.810Z,6.72
2022-09-24T00:54:45.311Z,6.68
2022-09-24T00:57:12.744Z,7.00
2022-09-24T00:59:41.154Z,6.72
2022-09-24T01:02:08.775Z,7.00
2022-09-24T01:04:35.685Z,6.53
2022-09-24T01:07:02.803Z,5.65
2022-09-24T01:09:30.180Z,6.10
2022-09-24T01:11:56.843Z,6.38
2022-09-24T01:14:50.690Z,5.63
2022-09-24T01:17:29.559Z,5.53
2022-09-24T01:20:15.139Z,5.78
2022-09-24T01:22:47.791Z,5.60
2022-09-24T01:25:46.565Z,6.05
2022-09-24T01:28:23.090Z,5.18
2022-09-24T01:30:54.841Z,5.30
2022-09-24T01:33:25.662Z,5.30
2022-09-24T01:35:57.874Z,4.70
2022-09-24T01:38:34.869Z,5.32
2022-09-24T01:41:03.990Z,5.68
2022-09-24T01:43:30.917Z,4.90
2022-09-24T01:46:01.163Z,5.07
2022-09-24T01:48:29.063Z,4.53
2022-09-24T01:51:09.454Z,4.70
2022-09-24T01:53:50.563Z,5.20
2022-09-24T01:56:24.614Z,4.80
2022-09-24T01:59:12.530Z,4.95
2022-09-24T02:02:14.311Z,4.70
2022-09-24T02:04:47.669Z,5.03
2022-09-24T02:07:22.027Z,4.35
2022-09-24T02:09:49.711Z,4.68
2022-09-24T02:12:29.629Z,4.57
2022-09-24T02:15:04.573Z,5.05
2022-09-24T02:17:37.512Z,4.57
2022-09-24T02:20:09.625Z,5.00
2022-09-24T02:22:38.553Z,5.10
2022-09-24T02:25:08.875Z,4.95
2022-09-24T02:27:36.001Z,4.65
2022-09-24T02:30:02.937Z,4.82
2022-09-24T02:32:32.277Z,5.13
2022-09-24T02:35:04.771Z,4.70
2022-09-24T02:37:35.967Z,4.95
2022-09-24T02:40:05.736Z,5.05
2022-09-24T02:42:32.960Z,4.93
2022-09-24T02:45:00.572Z,4.93
2022-09-24T02:47:28.667Z,4.35
2022-09-24T02:49:56.126Z,4.32
2022-09-24T02:52:23.864Z,4.57
2022-09-24T02:54:50.686Z,4.53
2022-09-24T02:57:18.759Z,4.68
2022-09-24T02:59:46.409Z,4.63
2022-09-24T03:02:13.666Z,4.43
2022-09-24T03:04:40.529Z,4.20
2022-09-24T03:07:07.290Z,4.32
2022-09-24T03:09:33.962Z,3.92
2022-09-24T03:12:01.127Z,4.20
2022-09-24T03:14:28.301Z,4.30
2022-09-24T03:16:55.398Z,4.80
2022-09-24T03:19:22.289Z,3.80
2022-09-24T03:21:49.016Z,4.28
2022-09-24T03:24:15.981Z,3.83
2022-09-24T03:26:42.818Z,4.38
2022-09-24T03:29:10.452Z,4.20
2022-09-24T03:31:37.364Z,3.92
2022-09-24T03:34:04.650Z,3.80
2022-09-24T03:36:31.513Z,3.90
2022-09-24T03:38:58.610Z,4.55
2022-09-24T03:41:28.161Z,3.78
2022-09-24T03:43:55.948Z,4.38
2022-09-24T03:46:24.960Z,3.95
2022-09-24T03:48:52.181Z,4.60
2022-09-24T03:51:20.185Z,4.05
2022-09-24T03:53:48.190Z,4.28
2022-09-24T03:56:15.078Z,4.00
2022-09-24T03:58:42.325Z,3.83
2022-09-24T04:01:13.058Z,3.85
2022-09-24T04:03:40.613Z,3.42
2022-09-24T04:06:07.742Z,4.18
2022-09-24T04:08:34.938Z,3.88
2022-09-24T04:11:01.732Z,3.70
2022-09-24T04:13:28.771Z,3.92
2022-09-24T04:15:55.722Z,3.88
2022-09-24T04:18:22.606Z,3.83
2022-09-24T04:20:49.366Z,4.13
2022-09-24T04:23:16.183Z,4.25
2022-09-24T04:25:44.508Z,3.83
2022-09-24T04:28:12.100Z,4.05
2022-09-24T04:30:39.433Z,4.40
2022-09-24T04:33:07.152Z,4.05
2022-09-24T04:35:38.497Z,4.47
2022-09-24T04:38:05.526Z,4.45
2022-09-24T04:40:32.719Z,3.90
2022-09-24T04:42:59.634Z,4.50
2022-09-24T04:45:26.882Z,3.65
2022-09-24T04:47:57.514Z,3.95
2022-09-24T04:50:33.331Z,3.80
2022-09-24T04:53:01.436Z,4.10
2022-09-24T04:55:28.821Z,4.35
2022-09-24T04:57:56.985Z,4.05
2022-09-24T05:00:24.688Z,4.53
2022-09-24T05:03:03.653Z,3.40
2022-09-24T05:05:34.472Z,3.50
2022-09-24T05:08:01.870Z,4.35
2022-09-24T05:10:30.129Z,3.67
2022-09-24T05:12:57.232Z,3.67
2022-09-24T05:15:23.954Z,3.95
2022-09-24T05:17:50.733Z,3.60
2022-09-24T05:20:17.812Z,3.78
2022-09-24T05:22:49.747Z,3.42
2022-09-24T05:25:18.294Z,3.47
2022-09-24T05:27:55.833Z,3.03
2022-09-24T05:30:24.835Z,3.38
2022-09-24T05:32:53.072Z,3.40
2022-09-24T05:35:21.440Z,3.78
2022-09-24T05:37:49.683Z,3.60
2022-09-24T05:40:35.190Z,3.47
2022-09-24T05:43:02.729Z,3.30
2022-09-24T05:45:31.169Z,3.72
2022-09-24T05:48:00.169Z,3.70
2022-09-24T05:50:27.740Z,3.63
2022-09-24T05:52:54.961Z,4.32
2022-09-24T05:55:21.791Z,3.83
2022-09-24T05:57:49.010Z,3.83
2022-09-24T06:00:15.949Z,3.90
2022-09-24T06:02:43.012Z,3.92
2022-09-24T06:05:12.484Z,4.00
2022-09-24T06:07:42.906Z,4.03
2022-09-24T06:10:10.499Z,5.00
2022-09-24T06:12:37.267Z,4.22
2022-09-24T06:15:04.436Z,4.13
2022-09-24T06:17:34.344Z,4.68
2022-09-24T06:20:01.577Z,4.63
2022-09-24T06:22:29.105Z,4.95
2022-09-24T06:24:55.964Z,4.93
2022-09-24T06:27:22.673Z,4.50
2022-09-24T06:29:49.705Z,4.75
2022-09-24T06:32:16.466Z,5.45
2022-09-24T06:34:43.172Z,5.68
2022-09-24T06:37:10.401Z,4.53
2022-09-24T06:39:37.072Z,4.82
2022-09-24T06:42:04.618Z,5.00
2022-09-24T06:44:31.690Z,4.70
2022-09-24T06:46:58.451Z,5.57
2022-09-24T06:49:27.067Z,5.80
2022-09-24T06:51:58.631Z,6.82
2022-09-24T06:54:25.552Z,6.95
2022-09-24T06:56:52.740Z,6.97
2022-09-24T06:59:19.565Z,7.45
2022-09-24T07:01:46.291Z,8.52
2022-09-24T07:04:13.054Z,8.85
2022-09-24T07:07:12.069Z,9.32
2022-09-24T07:09:41.405Z,8.50
2022-09-24T07:12:08.814Z,7.95
2022-09-24T07:14:35.519Z,8.38
2022-09-24T07:17:02.308Z,8.48
2022-09-24T07:19:29.237Z,9.13
2022-09-24T07:21:55.931Z,7.93
2022-09-24T07:24:22.691Z,8.40
2022-09-24T07:26:49.555Z,8.45
2022-09-24T07:29:16.948Z,8.73
2022-09-24T07:31:43.718Z,7.85
2022-09-24T07:34:10.624Z,7.65
2022-09-24T07:36:37.352Z,7.68
2022-09-24T07:39:04.956Z,8.75
2022-09-24T07:41:31.969Z,7.80
2022-09-24T07:43:58.769Z,8.15
2022-09-24T07:46:25.789Z,7.55
2022-09-24T07:48:56.349Z,7.20
2022-09-24T07:51:28.596Z,7.53
2022-09-24T07:53:56.489Z,6.75
2022-09-24T07:56:24.892Z,7.70
2022-09-24T07:58:52.897Z,7.45
2022-09-24T08:01:20.573Z,7.55
2022-09-24T08:03:47.453Z,6.72
2022-09-24T08:06:14.340Z,7.30
2022-09-24T08:08:41.167Z,7.00
2022-09-24T08:11:10.836Z,6.90
2022-09-24T08:13:37.934Z,6.50
2022-09-24T08:16:06.025Z,7.10
2022-09-24T08:18:33.056Z,6.72
2022-09-24T08:21:04.612Z,7.03
2022-09-24T08:23:33.144Z,7.88
2022-09-24T08:26:00.805Z,7.40
2022-09-24T08:28:28.511Z,6.47
2022-09-24T08:31:03.745Z,6.57
2022-09-24T08:33:32.776Z,7.47
2022-09-24T08:36:01.036Z,7.80
2022-09-24T08:38:27.964Z,7.03
2022-09-24T08:41:18.163Z,6.63
2022-09-24T08:44:03.705Z,6.97
2022-09-24T08:47:06.435Z,7.93
2022-09-24T08:49:40.423Z,6.50
2022-09-24T08:52:27.428Z,7.18
2022-09-24T08:54:56.967Z,7.53
2022-09-24T08:57:26.182Z,6.30
2022-09-24T08:59:53.277Z,7.85
2022-09-24T09:02:48.174Z,7.53
2022-09-24T09:05:37.180Z,6.90
2022-09-24T09:08:44.936Z,7.15
2022-09-24T09:11:43.933Z,7.15
2022-09-24T09:14:16.162Z,7.63
2022-09-24T09:17:01.957Z,7.68
2022-09-24T09:19:36.548Z,7.57
2022-09-24T09:22:13.355Z,7.83
2022-09-24T09:24:50.630Z,7.55
2022-09-24T09:27:19.134Z,8.23
2022-09-24T09:29:57.773Z,7.68
2022-09-24T09:32:36.981Z,8.68
2022-09-24T09:35:30.738Z,6.95
2022-09-24T09:38:06.612Z,8.13
2022-09-24T09:40:52.218Z,7.82
2022-09-24T09:43:20.786Z,8.90
2022-09-24T09:46:14.740Z,8.65
2022-09-24T09:48:48.522Z,7.63
2022-09-24T09:51:22.790Z,7.50
2022-09-24T09:53:56.738Z,8.30
2022-09-24T09:56:30.294Z,7.45
2022-09-24T09:59:17.898Z,7.28
2022-09-24T10:01:47.415Z,7.97
2022-09-24T10:04:43.302Z,7.68
2022-09-24T10:07:11.195Z,6.78
2022-09-24T10:09:39.197Z,7.63
2022-09-24T10:12:11.120Z,7.38
2022-09-24T10:14:38.039Z,7.18
2022-09-24T10:17:05.513Z,7.22
2022-09-24T10:19:39.112Z,7.03
2022-09-24T10:22:21.268Z,7.35
2022-09-24T10:24:48.340Z,6.93
2022-09-24T10:27:29.322Z,7.75
2022-09-24T10:30:15.757Z,7.82
2022-09-24T10:32:42.689Z,7.53
2022-09-24T10:35:38.529Z,8.70
2022-09-24T10:38:20.354Z,8.70
2022-09-24T10:40:48.126Z,7.28
2022-09-24T10:43:20.396Z,7.57
2022-09-24T10:46:13.163Z,8.30
2022-09-24T10:49:03.242Z,7.90
2022-09-24T10:51:44.204Z,8.93
2022-09-24T10:54:22.950Z,6.95
2022-09-24T10:56:55.758Z,6.63
2022-09-24T10:59:51.282Z,7.88
2022-09-24T11:02:47.386Z,7.32
2022-09-24T11:05:22.775Z,7.05
2022-09-24T11:07:56.589Z,7.65
2022-09-24T11:11:09.918Z,7.43
2022-09-24T11:14:18.252Z,7.78
2022-09-24T11:17:16.276Z,8.18
2022-09-24T11:20:09.942Z,6.85
2022-09-24T11:23:16.931Z,7.30
2022-09-24T11:28:35.471Z,7.93
2022-09-24T11:31:20.409Z,7.78
2022-09-24T11:34:15.097Z,6.57
2022-09-24T11:36:41.885Z,6.60
2022-09-24T11:39:14.964Z,6.43
2022-09-24T11:41:52.831Z,6.65
2022-09-24T11:45:03.186Z,5.90
2022-09-24T11:47:45.101Z,6.45
2022-09-24T11:50:20.418Z,6.50
2022-09-24T11:53:19.382Z,6.97
2022-09-24T11:55:54.909Z,6.05
2022-09-24T11:58:32.403Z,6.72
2022-09-24T12:01:24.648Z,6.45
2022-09-24T12:03:54.628Z,6.05
2022-09-24T12:06:38.965Z,6.38
2022-09-24T12:09:23.307Z,6.22
2022-09-24T12:11:59.385Z,6.55
2022-09-24T12:14:31.880Z,5.50
2022-09-24T12:17:06.679Z,5.63
2022-09-24T12:19:43.776Z,5.93
2022-09-24T12:22:11.746Z,5.82
2022-09-24T12:24:48.030Z,6.32
2022-09-24T12:27:22.552Z,5.57
2022-09-24T12:30:43.557Z,5.00
2022-09-24T12:33:34.475Z,5.68
2022-09-24T12:36:07.391Z,5.07
2022-09-24T12:38:52.399Z,5.40
2022-09-24T12:41:27.852Z,6.63
2022-09-24T12:44:21.666Z,5.25
2022-09-24T12:46:55.327Z,5.47
2022-09-24T12:49:25.014Z,4.55
2022-09-24T12:52:05.317Z,5.50
2022-09-24T12:54:34.572Z,6.38
2022-09-24T12:57:26.315Z,5.72
2022-09-24T12:59:59.054Z,5.30
2022-09-24T13:02:46.212Z,5.03
2022-09-24T13:05:27.132Z,5.60
2022-09-24T13:07:56.925Z,4.93
2022-09-24T13:10:29.700Z,4.97
2022-09-24T13:13:00.042Z,5.60
2022-09-24T13:15:33.342Z,4.32
2022-09-24T13:18:01.404Z,5.32
2022-09-24T13:20:28.562Z,5.07
2022-09-24T13:23:20.357Z,4.80
2022-09-24T13:26:00.092Z,5.78
2022-09-24T13:28:38.631Z,4.53
2022-09-24T13:31:22.591Z,4.63
2022-09-24T13:34:06.618Z,5.03
2022-09-24T13:36:33.433Z,4.47
2022-09-24T13:39:21.838Z,4.82
2022-09-24T13:42:15.968Z,5.00
2022-09-24T13:44:46.470Z,4.50
2022-09-24T13:47:37.359Z,4.70
2022-09-24T13:50:26.082Z,4.93
2022-09-24T13:53:07.649Z,4.45
2022-09-24T13:55:43.056Z,4.72
2022-09-24T13:58:30.070Z,4.30
2022-09-24T14:01:00.319Z,5.05
2022-09-24T14:03:28.944Z,5.30
2022-09-24T14:05:57.289Z,4.20
2022-09-24T14:08:27.466Z,4.60
2022-09-24T14:11:13.760Z,4.05
2022-09-24T14:13:45.993Z,4.22
2022-09-24T14:16:17.813Z,4.85
2022-09-24T14:18:45.662Z,4.90
2022-09-24T14:21:21.606Z,4.50
2022-09-24T14:23:55.158Z,4.38
2022-09-24T14:26:32.112Z,4.97
2022-09-24T14:29:01.675Z,4.85
2022-09-24T14:31:28.852Z,5.05
2022-09-24T14:33:56.059Z,4.82
2022-09-24T14:36:28.143Z,4.90
2022-09-24T14:39:05.325Z,4.22
2022-09-24T14:41:35.092Z,4.15
2022-09-24T14:44:24.347Z,4.63
2022-09-24T14:46:55.541Z,4.93
2022-09-24T14:49:24.881Z,3.90
2022-09-24T14:51:56.069Z,3.95
2022-09-24T14:54:32.275Z,4.80
2022-09-24T14:57:17.705Z,4.30
2022-09-24T14:59:45.729Z,4.50
2022-09-24T15:02:18.483Z,4.13
2022-09-24T15:04:51.122Z,4.65
2022-09-24T15:07:29.787Z,4.53
2022-09-24T15:09:59.129Z,4.70
2022-09-24T15:12:32.511Z,4.00
2022-09-24T15:15:27.917Z,3.97
2022-09-24T15:17:54.853Z,4.10
2022-09-24T15:20:21.537Z,4.00
2022-09-24T15:22:48.221Z,4.68
2022-09-24T15:25:15.881Z,4.55
2022-09-24T15:27:49.566Z,4.40
2022-09-24T15:30:21.507Z,4.45
2022-09-24T15:32:51.597Z,4.25
2022-09-24T15:35:20.301Z,4.35
2022-09-24T15:37:49.769Z,4.75
2022-09-24T15:40:23.374Z,4.93
2022-09-24T15:42:52.155Z,4.20
2022-09-24T15:45:23.891Z,5.50
2022-09-24T15:47:51.773Z,4.85
2022-09-24T15:50:20.477Z,4.60
2022-09-24T15:52:57.170Z,4.38
2022-09-24T15:55:24.207Z,5.18
2022-09-24T15:57:51.104Z,4.82
2022-09-24T16:00:23.291Z,5.32
2022-09-24T16:02:55.630Z,6.07
2022-09-24T16:05:24.148Z,6.70
2022-09-24T16:07:50.952Z,7.30
2022-09-24T16:10:18.143Z,6.47
2022-09-24T16:12:44.881Z,7.90
2022-09-24T16:15:16.552Z,6.70
2022-09-24T16:17:44.132Z,6.82
2022-09-24T16:20:10.900Z,7.57
2022-09-24T16:22:37.706Z,7.68
2022-09-24T16:25:05.575Z,7.55
2022-09-24T16:27:34.693Z,7.80
2022-09-24T16:30:02.689Z,8.35
2022-09-24T16:32:29.450Z,8.15
2022-09-24T16:34:57.343Z,7.78
2022-09-24T16:37:25.389Z,7.70
2022-09-24T16:39:52.652Z,8.80
2022-09-24T16:42:19.471Z,8.10
2022-09-24T16:44:46.278Z,9.93
2022-09-24T16:47:16.377Z,11.82
2022-09-24T16:49:43.316Z,10.18
2022-09-24T16:52:10.117Z,8.45
2022-09-24T16:54:37.064Z,7.43
2022-09-24T16:57:06.017Z,7.82
2022-09-24T16:59:33.189Z,6.97
2022-09-24T17:02:00.430Z,7.45
2022-09-24T17:04:27.931Z,7.93
2022-09-24T17:06:56.119Z,7.10
2022-09-24T17:09:42.028Z,7.80
2022-09-24T17:12:10.884Z,7.35
2022-09-24T17:14:38.109Z,7.50
2022-09-24T17:17:05.564Z,7.22
2022-09-24T17:19:32.286Z,7.75
2022-09-24T17:21:59.025Z,6.53
2022-09-24T17:24:26.617Z,7.78
2022-09-24T17:26:54.228Z,6.82
2022-09-24T17:29:22.306Z,7.50
2022-09-24T17:31:49.299Z,9.10
2022-09-24T17:34:16.119Z,7.28
2022-09-24T17:36:43.241Z,7.72
2022-09-24T17:39:12.997Z,7.15
2022-09-24T17:41:39.907Z,7.15
2022-09-24T17:44:07.322Z,7.82
2022-09-24T17:46:35.970Z,6.85
2022-09-24T17:49:03.008Z,6.93
2022-09-24T17:51:35.429Z,6.97
2022-09-24T17:54:05.315Z,8.10
2022-09-24T17:56:34.122Z,7.55
2022-09-24T17:59:00.964Z,6.97
2022-09-24T18:01:38.857Z,7.38
2022-09-24T18:04:07.749Z,7.18
2022-09-24T18:06:37.623Z,6.93
2022-09-24T18:09:05.285Z,7.45
2022-09-24T18:11:46.174Z,7.10
2022-09-24T18:14:16.844Z,6.70
2022-09-24T18:16:44.637Z,7.65
2022-09-24T18:19:13.385Z,7.30
2022-09-24T18:21:40.177Z,7.32
2022-09-24T18:24:07.125Z,7.95
2022-09-24T18:26:36.575Z,7.20
2022-09-24T18:29:11.920Z,6.93
2022-09-24T18:31:39.981Z,6.93
2022-09-24T18:34:08.256Z,7.53
2022-09-24T18:36:37.569Z,6.30
2022-09-24T18:39:06.268Z,6.50
2022-09-24T18:41:33.573Z,6.70
2022-09-24T18:44:00.827Z,7.55
2022-09-24T18:46:29.961Z,7.88
2022-09-24T18:48:57.957Z,7.45
2022-09-24T18:51:37.154Z,6.97
2022-09-24T18:54:10.841Z,6.68
2022-09-24T18:56:37.651Z,7.18
2022-09-24T18:59:10.268Z,7.45
2022-09-24T19:01:42.289Z,5.93
2022-09-24T19:04:10.932Z,7.03
2022-09-24T19:06:39.913Z,6.43
2022-09-24T19:09:07.992Z,7.40
2022-09-24T19:11:35.393Z,7.05
2022-09-24T19:14:02.809Z,6.22
2022-09-24T19:16:36.825Z,7.68
2022-09-24T19:19:03.706Z,6.90
2022-09-24T19:21:30.789Z,7.63
2022-09-24T19:23:58.849Z,6.57
2022-09-24T19:26:31.745Z,6.60
2022-09-24T19:28:58.962Z,5.85
2022-09-24T19:31:30.028Z,7.72
2022-09-24T19:33:58.397Z,6.50
2022-09-24T19:36:25.198Z,6.18
2022-09-24T19:38:53.126Z,7.22
2022-09-24T19:41:24.974Z,6.25
2022-09-24T19:43:52.985Z,6.35
2022-09-24T19:46:25.709Z,6.47
2022-09-24T19:48:54.050Z,7.97
2022-09-24T19:51:23.173Z,6.75
2022-09-24T19:53:53.142Z,6.78
2022-09-24T19:56:22.734Z,6.70
2022-09-24T19:58:53.731Z,6.18
2022-09-24T20:01:30.432Z,6.45
2022-09-24T20:03:58.961Z,6.20
2022-09-24T20:06:29.932Z,6.57
2022-09-24T20:08:57.657Z,5.93
2022-09-24T20:11:26.814Z,6.13
2022-09-24T20:13:57.003Z,5.75
2022-09-24T20:16:26.875Z,6.28
2022-09-24T20:18:57.695Z,6.78
2022-09-24T20:21:32.457Z,6.47
2022-09-24T20:23:59.384Z,6.10
2022-09-24T20:26:45.245Z,6.82
2022-09-24T20:29:14.104Z,6.57
2022-09-24T20:31:42.654Z,6.30
2022-09-24T20:34:09.440Z,7.15
2022-09-24T20:36:36.390Z,7.45
2022-09-24T20:39:04.053Z,6.28
2022-09-24T20:41:30.833Z,7.53
2022-09-24T20:43:57.569Z,6.68
2022-09-24T20:46:26.390Z,7.53
2022-09-24T20:48:53.720Z,5.53
2022-09-24T20:51:21.505Z,6.75
2022-09-24T20:53:49.231Z,6.93
2022-09-24T20:56:17.463Z,6.22
2022-09-24T20:58:44.469Z,5.40
2022-09-24T21:01:11.612Z,5.07
2022-09-24T21:03:45.179Z,6.03
2022-09-24T21:06:13.378Z,6.95
2022-09-24T21:08:42.241Z,5.53
2022-09-24T21:11:18.189Z,5.18
2022-09-24T21:13:49.992Z,7.00
2022-09-24T21:16:19.833Z,5.60
2022-09-24T21:18:47.721Z,6.78
2022-09-24T21:21:20.069Z,6.65
2022-09-24T21:23:49.232Z,6.85
2022-09-24T21:26:36.234Z,5.88
2022-09-24T21:29:17.743Z,6.07
2022-09-24T21:31:46.786Z,6.80
2022-09-24T21:34:16.235Z,5.68
2022-09-24T21:36:45.615Z,6.85
2022-09-24T21:39:15.984Z,6.47
2022-09-24T21:41:43.679Z,6.32
2022-09-24T21:44:13.213Z,6.95
2022-09-24T21:46:42.858Z,6.78
2022-09-24T21:49:10.348Z,6.43
2022-09-24T21:51:38.130Z,5.97
2022-09-24T21:54:08.462Z,5.80
2022-09-24T21:56:35.995Z,6.78
2022-09-24T21:59:23.223Z,6.60
2022-09-24T22:01:50.035Z,6.60
2022-09-24T22:04:16.999Z,6.32
2022-09-24T22:06:43.786Z,6.10
2022-09-24T22:09:10.949Z,6.32
2022-09-24T22:11:38.124Z,5.78
2022-09-24T22:14:05.223Z,6.47
2022-09-24T22:16:34.857Z,5.75
2022-09-24T22:19:03.634Z,6.20
2022-09-24T22:21:31.901Z,6.22
2022-09-24T22:23:59.372Z,6.18
2022-09-24T22:26:26.288Z,5.63
2022-09-24T22:28:53.980Z,6.10
2022-09-24T22:31:21.142Z,6.28
2022-09-24T22:34:06.966Z,6.40
2022-09-24T22:36:35.415Z,6.50
2022-09-24T22:39:04.297Z,6.22
2022-09-24T22:41:31.440Z,6.03
2022-09-24T22:43:59.301Z,5.82
2022-09-24T22:46:27.276Z,5.57
2022-09-24T22:48:55.923Z,6.00
2022-09-24T22:51:24.637Z,5.80
2022-09-24T22:53:53.130Z,5.30
2022-09-24T22:56:23.697Z,5.43
2022-09-24T22:58:52.905Z,5.75
2022-09-24T23:01:25.976Z,5.85
2022-09-24T23:03:54.662Z,5.43
2022-09-24T23:06:22.171Z,5.35
2022-09-24T23:08:49.605Z,5.20
2022-09-24T23:11:18.849Z,5.40
2022-09-24T23:13:47.715Z,5.15
2022-09-24T23:16:20.197Z,5.30
2022-09-24T23:18:48.954Z,4.90
2022-09-24T23:21:18.129Z,6.07
2022-09-24T23:23:44.987Z,5.50
2022-09-24T23:26:18.674Z,4.97
2022-09-24T23:28:50.607Z,4.95
2022-09-24T23:31:18.441Z,5.35
2022-09-24T23:33:45.190Z,5.40
2022-09-24T23:36:13.502Z,4.95
2022-09-24T23:38:41.971Z,4.85
2022-09-24T23:41:10.490Z,6.15
2022-09-24T23:43:37.383Z,4.68
2022-09-24T23:46:04.835Z,5.18
2022-09-24T23:48:32.273Z,6.05
2022-09-24T23:50:59.157Z,5.40
2022-09-24T23:53:26.846Z,4.63
2022-09-24T23:55:54.198Z,5.40
2022-09-24T23:58:22.611Z,5.10
